sensor_id;sensor_type;location;lat;lon;timestamp;P1;durP1;ratioP1;P2;durP2;ratioP2
72720;SDS011;60835;50.974;10.322;2023-09-19T00:00:31;2.17;;;1.05;;
72720;SDS011;60835;50.974;10.322;2023-09-19T00:02:59;1.63;;;0.77;;
72720;SDS011;60835;50.974;10.322;2023-09-19T00:05:27;3.90;;;1.05;;
72720;SDS011;60835;50.974;10.322;2023-09-19T00:07:56;1.90;;;1.33;;
72720;SDS011;60835;50.974;10.322;2023-09-19T00:10:27;2.45;;;1.00;;
72720;SDS011;60835;50.974;10.322;2023-09-19T00:12:58;4.65;;;1.10;;
72720;SDS011;60835;50.974;10.322;2023-09-19T00:15:35;4.05;;;1.20;;
72720;SDS011;60835;50.974;10.322;2023-09-19T00:18:04;2.92;;;1.58;;
72720;SDS011;60835;50.974;10.322;2023-09-19T00:20:35;3.88;;;1.00;;
72720;SDS011;60835;50.974;10.322;2023-09-19T00:23:03;1.20;;;0.88;;
72720;SDS011;60835;50.974;10.322;2023-09-19T00:25:30;2.25;;;0.95;;
72720;SDS011;60835;50.974;10.322;2023-09-19T00:27:58;7.60;;;1.10;;
72720;SDS011;60835;50.974;10.322;2023-09-19T00:30:25;3.15;;;0.95;;
72720;SDS011;60835;50.974;10.322;2023-09-19T00:32:51;3.92;;;1.05;;
72720;SDS011;60835;50.974;10.322;2023-09-19T00:35:19;3.20;;;1.42;;
72720;SDS011;60835;50.974;10.322;2023-09-19T00:37:45;1.35;;;0.90;;
72720;SDS011;60835;50.974;10.322;2023-09-19T00:40:12;7.35;;;1.30;;
72720;SDS011;60835;50.974;10.322;2023-09-19T00:42:39;2.47;;;0.80;;
72720;SDS011;60835;50.974;10.322;2023-09-19T00:45:10;4.78;;;0.98;;
72720;SDS011;60835;50.974;10.322;2023-09-19T00:47:38;1.80;;;0.95;;
72720;SDS011;60835;50.974;10.322;2023-09-19T00:50:07;2.95;;;0.90;;
72720;SDS011;60835;50.974;10.322;2023-09-19T00:52:35;2.75;;;0.95;;
72720;SDS011;60835;50.974;10.322;2023-09-19T00:55:05;5.63;;;1.00;;
72720;SDS011;60835;50.974;10.322;2023-09-19T00:57:34;3.80;;;0.98;;
72720;SDS011;60835;50.974;10.322;2023-09-19T01:00:02;4.53;;;1.08;;
72720;SDS011;60835;50.974;10.322;2023-09-19T01:02:33;4.20;;;1.08;;
72720;SDS011;60835;50.974;10.322;2023-09-19T01:05:01;2.05;;;1.17;;
72720;SDS011;60835;50.974;10.322;2023-09-19T01:07:30;2.53;;;0.90;;
72720;SDS011;60835;50.974;10.322;2023-09-19T01:10:00;3.03;;;1.15;;
72720;SDS011;60835;50.974;10.322;2023-09-19T01:23:23;4.10;;;1.30;;
72720;SDS011;60835;50.974;10.322;2023-09-19T01:26:17;4.63;;;1.40;;
72720;SDS011;60835;50.974;10.322;2023-09-19T01:32:06;3.58;;;1.10;;
72720;SDS011;60835;50.974;10.322;2023-09-19T01:34:53;3.97;;;1.30;;
72720;SDS011;60835;50.974;10.322;2023-09-19T01:37:22;4.55;;;1.27;;
72720;SDS011;60835;50.974;10.322;2023-09-19T01:39:55;3.88;;;1.58;;
72720;SDS011;60835;50.974;10.322;2023-09-19T01:42:40;1.98;;;1.40;;
72720;SDS011;60835;50.974;10.322;2023-09-19T01:51:09;3.47;;;1.40;;
72720;SDS011;60835;50.974;10.322;2023-09-19T01:53:57;3.25;;;1.08;;
72720;SDS011;60835;50.974;10.322;2023-09-19T01:56:32;3.60;;;1.45;;
72720;SDS011;60835;50.974;10.322;2023-09-19T01:59:04;3.72;;;1.75;;
72720;SDS011;60835;50.974;10.322;2023-09-19T02:01:35;3.83;;;1.65;;
72720;SDS011;60835;50.974;10.322;2023-09-19T02:04:04;3.35;;;1.55;;
72720;SDS011;60835;50.974;10.322;2023-09-19T02:06:31;4.75;;;1.65;;
72720;SDS011;60835;50.974;10.322;2023-09-19T02:08:58;3.15;;;1.70;;
72720;SDS011;60835;50.974;10.322;2023-09-19T02:11:25;3.88;;;1.58;;
72720;SDS011;60835;50.974;10.322;2023-09-19T02:13:52;4.78;;;1.25;;
72720;SDS011;60835;50.974;10.322;2023-09-19T02:16:21;5.03;;;1.70;;
72720;SDS011;60835;50.974;10.322;2023-09-19T02:18:48;2.15;;;1.45;;
72720;SDS011;60835;50.974;10.322;2023-09-19T02:21:16;4.88;;;1.35;;
72720;SDS011;60835;50.974;10.322;2023-09-19T02:23:44;3.97;;;1.23;;
72720;SDS011;60835;50.974;10.322;2023-09-19T02:26:11;5.35;;;1.63;;
72720;SDS011;60835;50.974;10.322;2023-09-19T02:28:38;3.13;;;1.10;;
72720;SDS011;60835;50.974;10.322;2023-09-19T02:31:05;3.78;;;1.20;;
72720;SDS011;60835;50.974;10.322;2023-09-19T02:33:32;2.83;;;1.58;;
72720;SDS011;60835;50.974;10.322;2023-09-19T02:35:59;4.85;;;1.30;;
72720;SDS011;60835;50.974;10.322;2023-09-19T02:38:27;2.47;;;1.30;;
72720;SDS011;60835;50.974;10.322;2023-09-19T02:40:55;2.25;;;1.20;;
72720;SDS011;60835;50.974;10.322;2023-09-19T02:43:22;2.35;;;1.40;;
72720;SDS011;60835;50.974;10.322;2023-09-19T02:45:50;2.85;;;1.33;;
72720;SDS011;60835;50.974;10.322;2023-09-19T02:48:16;3.67;;;1.27;;
72720;SDS011;60835;50.974;10.322;2023-09-19T02:50:45;1.98;;;1.40;;
72720;SDS011;60835;50.974;10.322;2023-09-19T02:53:12;3.30;;;1.42;;
72720;SDS011;60835;50.974;10.322;2023-09-19T02:55:39;2.92;;;1.30;;
72720;SDS011;60835;50.974;10.322;2023-09-19T02:58:09;2.08;;;1.13;;
72720;SDS011;60835;50.974;10.322;2023-09-19T03:00:37;2.95;;;1.40;;
72720;SDS011;60835;50.974;10.322;2023-09-19T03:03:04;2.10;;;1.40;;
72720;SDS011;60835;50.974;10.322;2023-09-19T03:05:32;4.22;;;1.35;;
72720;SDS011;60835;50.974;10.322;2023-09-19T03:07:59;3.80;;;1.27;;
72720;SDS011;60835;50.974;10.322;2023-09-19T03:10:29;1.98;;;1.20;;
72720;SDS011;60835;50.974;10.322;2023-09-19T03:12:57;2.58;;;1.05;;
72720;SDS011;60835;50.974;10.322;2023-09-19T03:15:26;1.77;;;1.05;;
72720;SDS011;60835;50.974;10.322;2023-09-19T03:17:52;3.05;;;1.50;;
72720;SDS011;60835;50.974;10.322;2023-09-19T03:20:20;4.20;;;1.48;;
72720;SDS011;60835;50.974;10.322;2023-09-19T03:22:47;3.45;;;1.40;;
72720;SDS011;60835;50.974;10.322;2023-09-19T03:25:14;4.00;;;1.23;;
72720;SDS011;60835;50.974;10.322;2023-09-19T03:27:41;1.58;;;1.20;;
72720;SDS011;60835;50.974;10.322;2023-09-19T03:30:08;2.90;;;1.45;;
72720;SDS011;60835;50.974;10.322;2023-09-19T03:32:35;3.97;;;1.20;;
72720;SDS011;60835;50.974;10.322;2023-09-19T03:35:02;3.22;;;1.33;;
72720;SDS011;60835;50.974;10.322;2023-09-19T03:37:32;1.67;;;1.10;;
72720;SDS011;60835;50.974;10.322;2023-09-19T03:40:00;3.42;;;1.45;;
72720;SDS011;60835;50.974;10.322;2023-09-19T03:42:31;2.40;;;1.38;;
72720;SDS011;60835;50.974;10.322;2023-09-19T03:44:58;2.63;;;1.17;;
72720;SDS011;60835;50.974;10.322;2023-09-19T03:47:27;3.67;;;1.60;;
72720;SDS011;60835;50.974;10.322;2023-09-19T03:49:53;2.75;;;1.38;;
72720;SDS011;60835;50.974;10.322;2023-09-19T03:52:20;4.28;;;1.58;;
72720;SDS011;60835;50.974;10.322;2023-09-19T03:54:46;2.58;;;1.35;;
72720;SDS011;60835;50.974;10.322;2023-09-19T03:57:13;3.70;;;1.38;;
72720;SDS011;60835;50.974;10.322;2023-09-19T03:59:42;2.42;;;1.20;;
72720;SDS011;60835;50.974;10.322;2023-09-19T04:02:09;3.53;;;1.20;;
72720;SDS011;60835;50.974;10.322;2023-09-19T04:04:48;5.35;;;1.45;;
72720;SDS011;60835;50.974;10.322;2023-09-19T04:07:15;2.30;;;1.20;;
72720;SDS011;60835;50.974;10.322;2023-09-19T04:09:42;3.30;;;1.30;;
72720;SDS011;60835;50.974;10.322;2023-09-19T04:12:09;4.63;;;1.60;;
72720;SDS011;60835;50.974;10.322;2023-09-19T04:14:35;6.47;;;1.60;;
72720;SDS011;60835;50.974;10.322;2023-09-19T04:17:02;3.60;;;1.33;;
72720;SDS011;60835;50.974;10.322;2023-09-19T04:19:29;2.33;;;1.10;;
72720;SDS011;60835;50.974;10.322;2023-09-19T04:21:57;3.70;;;1.45;;
72720;SDS011;60835;50.974;10.322;2023-09-19T04:24:24;4.95;;;1.33;;
72720;SDS011;60835;50.974;10.322;2023-09-19T04:26:50;3.75;;;1.33;;
72720;SDS011;60835;50.974;10.322;2023-09-19T04:29:17;1.85;;;1.30;;
72720;SDS011;60835;50.974;10.322;2023-09-19T04:31:45;2.55;;;1.30;;
72720;SDS011;60835;50.974;10.322;2023-09-19T04:34:12;2.55;;;1.50;;
72720;SDS011;60835;50.974;10.322;2023-09-19T04:36:42;5.63;;;1.75;;
72720;SDS011;60835;50.974;10.322;2023-09-19T04:39:09;2.08;;;1.08;;
72720;SDS011;60835;50.974;10.322;2023-09-19T04:41:37;4.30;;;1.73;;
72720;SDS011;60835;50.974;10.322;2023-09-19T04:44:05;2.75;;;1.30;;
72720;SDS011;60835;50.974;10.322;2023-09-19T04:46:32;5.75;;;1.60;;
72720;SDS011;60835;50.974;10.322;2023-09-19T04:48:58;2.25;;;1.10;;
72720;SDS011;60835;50.974;10.322;2023-09-19T04:51:25;2.47;;;1.30;;
72720;SDS011;60835;50.974;10.322;2023-09-19T04:53:55;2.75;;;1.35;;
72720;SDS011;60835;50.974;10.322;2023-09-19T04:56:21;3.38;;;1.40;;
72720;SDS011;60835;50.974;10.322;2023-09-19T04:58:49;4.45;;;1.23;;
72720;SDS011;60835;50.974;10.322;2023-09-19T05:01:16;8.18;;;1.50;;
72720;SDS011;60835;50.974;10.322;2023-09-19T05:03:42;4.25;;;2.40;;
72720;SDS011;60835;50.974;10.322;2023-09-19T05:06:10;5.35;;;1.65;;
72720;SDS011;60835;50.974;10.322;2023-09-19T05:08:37;5.90;;;2.53;;
72720;SDS011;60835;50.974;10.322;2023-09-19T05:11:04;4.93;;;1.70;;
72720;SDS011;60835;50.974;10.322;2023-09-19T05:13:32;4.50;;;1.55;;
72720;SDS011;60835;50.974;10.322;2023-09-19T05:16:02;3.30;;;1.08;;
72720;SDS011;60835;50.974;10.322;2023-09-19T05:18:29;6.88;;;1.60;;
72720;SDS011;60835;50.974;10.322;2023-09-19T05:20:55;6.97;;;1.70;;
72720;SDS011;60835;50.974;10.322;2023-09-19T05:23:22;3.33;;;1.20;;
72720;SDS011;60835;50.974;10.322;2023-09-19T05:25:48;5.38;;;1.30;;
72720;SDS011;60835;50.974;10.322;2023-09-19T05:28:15;3.90;;;1.30;;
72720;SDS011;60835;50.974;10.322;2023-09-19T05:30:42;3.72;;;1.40;;
72720;SDS011;60835;50.974;10.322;2023-09-19T05:33:14;8.35;;;1.50;;
72720;SDS011;60835;50.974;10.322;2023-09-19T05:35:41;3.83;;;1.85;;
72720;SDS011;60835;50.974;10.322;2023-09-19T05:38:08;3.38;;;1.50;;
72720;SDS011;60835;50.974;10.322;2023-09-19T05:40:39;7.97;;;1.90;;
72720;SDS011;60835;50.974;10.322;2023-09-19T05:43:08;5.72;;;1.70;;
72720;SDS011;60835;50.974;10.322;2023-09-19T05:45:35;3.42;;;1.52;;
72720;SDS011;60835;50.974;10.322;2023-09-19T05:48:09;2.30;;;1.27;;
72720;SDS011;60835;50.974;10.322;2023-09-19T05:50:38;4.43;;;1.35;;
72720;SDS011;60835;50.974;10.322;2023-09-19T05:53:04;6.32;;;1.83;;
72720;SDS011;60835;50.974;10.322;2023-09-19T05:55:32;3.72;;;1.30;;
72720;SDS011;60835;50.974;10.322;2023-09-19T05:57:59;5.60;;;1.95;;
72720;SDS011;60835;50.974;10.322;2023-09-19T06:00:26;6.78;;;1.85;;
72720;SDS011;60835;50.974;10.322;2023-09-19T06:02:54;5.22;;;1.52;;
72720;SDS011;60835;50.974;10.322;2023-09-19T06:05:22;5.10;;;1.90;;
72720;SDS011;60835;50.974;10.322;2023-09-19T06:07:49;3.45;;;1.20;;
72720;SDS011;60835;50.974;10.322;2023-09-19T06:10:17;3.63;;;1.55;;
72720;SDS011;60835;50.974;10.322;2023-09-19T06:12:44;4.40;;;1.60;;
72720;SDS011;60835;50.974;10.322;2023-09-19T06:15:11;4.95;;;1.55;;
72720;SDS011;60835;50.974;10.322;2023-09-19T06:17:49;6.22;;;1.75;;
72720;SDS011;60835;50.974;10.322;2023-09-19T06:20:17;3.33;;;1.40;;
72720;SDS011;60835;50.974;10.322;2023-09-19T06:22:44;9.05;;;1.98;;
72720;SDS011;60835;50.974;10.322;2023-09-19T06:25:12;3.08;;;1.52;;
72720;SDS011;60835;50.974;10.322;2023-09-19T06:27:46;4.90;;;1.63;;
72720;SDS011;60835;50.974;10.322;2023-09-19T06:30:21;8.00;;;1.70;;
72720;SDS011;60835;50.974;10.322;2023-09-19T06:32:58;8.18;;;2.08;;
72720;SDS011;60835;50.974;10.322;2023-09-19T06:35:26;2.55;;;1.40;;
72720;SDS011;60835;50.974;10.322;2023-09-19T06:37:56;2.90;;;1.60;;
72720;SDS011;60835;50.974;10.322;2023-09-19T06:40:24;6.32;;;1.50;;
72720;SDS011;60835;50.974;10.322;2023-09-19T06:42:51;5.05;;;1.80;;
72720;SDS011;60835;50.974;10.322;2023-09-19T06:45:22;7.18;;;2.20;;
72720;SDS011;60835;50.974;10.322;2023-09-19T06:47:53;5.25;;;1.30;;
72720;SDS011;60835;50.974;10.322;2023-09-19T06:50:21;4.55;;;1.45;;
72720;SDS011;60835;50.974;10.322;2023-09-19T06:52:50;6.78;;;1.60;;
72720;SDS011;60835;50.974;10.322;2023-09-19T06:55:18;7.22;;;2.42;;
72720;SDS011;60835;50.974;10.322;2023-09-19T06:57:46;5.15;;;1.40;;
72720;SDS011;60835;50.974;10.322;2023-09-19T07:00:14;8.75;;;2.05;;
72720;SDS011;60835;50.974;10.322;2023-09-19T07:02:57;5.30;;;1.40;;
72720;SDS011;60835;50.974;10.322;2023-09-19T07:05:38;7.82;;;1.50;;
72720;SDS011;60835;50.974;10.322;2023-09-19T07:08:06;8.38;;;1.48;;
72720;SDS011;60835;50.974;10.322;2023-09-19T07:10:34;6.80;;;1.63;;
72720;SDS011;60835;50.974;10.322;2023-09-19T07:13:01;5.53;;;1.58;;
72720;SDS011;60835;50.974;10.322;2023-09-19T07:15:29;6.78;;;1.75;;
72720;SDS011;60835;50.974;10.322;2023-09-19T07:17:59;5.95;;;1.75;;
72720;SDS011;60835;50.974;10.322;2023-09-19T07:20:27;6.00;;;1.63;;
72720;SDS011;60835;50.974;10.322;2023-09-19T07:22:58;6.50;;;1.58;;
72720;SDS011;60835;50.974;10.322;2023-09-19T07:25:28;5.85;;;1.92;;
72720;SDS011;60835;50.974;10.322;2023-09-19T07:27:56;7.35;;;1.40;;
72720;SDS011;60835;50.974;10.322;2023-09-19T07:30:26;8.55;;;1.90;;
72720;SDS011;60835;50.974;10.322;2023-09-19T07:32:53;6.82;;;1.60;;
72720;SDS011;60835;50.974;10.322;2023-09-19T07:35:19;10.50;;;1.70;;
72720;SDS011;60835;50.974;10.322;2023-09-19T07:37:46;7.78;;;1.77;;
72720;SDS011;60835;50.974;10.322;2023-09-19T07:40:18;13.13;;;2.13;;
72720;SDS011;60835;50.974;10.322;2023-09-19T07:42:45;10.00;;;2.13;;
72720;SDS011;60835;50.974;10.322;2023-09-19T07:45:13;6.32;;;1.80;;
72720;SDS011;60835;50.974;10.322;2023-09-19T07:47:47;4.35;;;1.60;;
72720;SDS011;60835;50.974;10.322;2023-09-19T07:50:15;3.00;;;1.27;;
72720;SDS011;60835;50.974;10.322;2023-09-19T07:52:44;6.45;;;2.10;;
72720;SDS011;60835;50.974;10.322;2023-09-19T07:55:11;7.28;;;2.05;;
72720;SDS011;60835;50.974;10.322;2023-09-19T07:57:45;5.95;;;1.75;;
72720;SDS011;60835;50.974;10.322;2023-09-19T08:00:12;3.65;;;1.20;;
72720;SDS011;60835;50.974;10.322;2023-09-19T08:02:40;5.50;;;1.65;;
72720;SDS011;60835;50.974;10.322;2023-09-19T08:05:08;5.43;;;1.98;;
72720;SDS011;60835;50.974;10.322;2023-09-19T08:07:39;6.47;;;1.50;;
72720;SDS011;60835;50.974;10.322;2023-09-19T08:10:10;4.22;;;1.77;;
72720;SDS011;60835;50.974;10.322;2023-09-19T08:12:40;3.88;;;1.73;;
72720;SDS011;60835;50.974;10.322;2023-09-19T08:15:21;9.85;;;2.28;;
72720;SDS011;60835;50.974;10.322;2023-09-19T08:17:48;5.55;;;2.00;;
72720;SDS011;60835;50.974;10.322;2023-09-19T08:20:15;7.53;;;2.10;;
72720;SDS011;60835;50.974;10.322;2023-09-19T08:22:49;8.95;;;1.60;;
72720;SDS011;60835;50.974;10.322;2023-09-19T08:25:19;4.95;;;1.77;;
72720;SDS011;60835;50.974;10.322;2023-09-19T08:27:45;8.90;;;2.25;;
72720;SDS011;60835;50.974;10.322;2023-09-19T08:30:23;5.85;;;1.65;;
72720;SDS011;60835;50.974;10.322;2023-09-19T08:32:51;7.60;;;2.10;;
72720;SDS011;60835;50.974;10.322;2023-09-19T08:35:23;5.55;;;1.90;;
72720;SDS011;60835;50.974;10.322;2023-09-19T08:37:51;4.80;;;1.92;;
72720;SDS011;60835;50.974;10.322;2023-09-19T08:40:18;8.30;;;1.88;;
72720;SDS011;60835;50.974;10.322;2023-09-19T08:42:55;5.95;;;2.15;;
72720;SDS011;60835;50.974;10.322;2023-09-19T08:45:23;5.03;;;1.88;;
72720;SDS011;60835;50.974;10.322;2023-09-19T08:50:26;6.10;;;1.90;;
72720;SDS011;60835;50.974;10.322;2023-09-19T08:53:00;7.78;;;1.52;;
72720;SDS011;60835;50.974;10.322;2023-09-19T08:55:28;4.78;;;1.60;;
72720;SDS011;60835;50.974;10.322;2023-09-19T08:58:03;7.40;;;2.00;;
72720;SDS011;60835;50.974;10.322;2023-09-19T09:00:33;4.80;;;1.73;;
72720;SDS011;60835;50.974;10.322;2023-09-19T09:03:01;6.90;;;2.10;;
72720;SDS011;60835;50.974;10.322;2023-09-19T09:05:30;6.15;;;1.58;;
72720;SDS011;60835;50.974;10.322;2023-09-19T09:07:58;6.57;;;1.92;;
72720;SDS011;60835;50.974;10.322;2023-09-19T09:10:26;5.25;;;1.63;;
72720;SDS011;60835;50.974;10.322;2023-09-19T09:12:53;5.65;;;1.67;;
72720;SDS011;60835;50.974;10.322;2023-09-19T09:15:23;6.60;;;1.65;;
72720;SDS011;60835;50.974;10.322;2023-09-19T09:17:50;9.52;;;1.85;;
72720;SDS011;60835;50.974;10.322;2023-09-19T09:20:19;3.30;;;1.80;;
72720;SDS011;60835;50.974;10.322;2023-09-19T09:22:53;5.90;;;1.60;;
72720;SDS011;60835;50.974;10.322;2023-09-19T09:25:21;4.50;;;1.70;;
72720;SDS011;60835;50.974;10.322;2023-09-19T09:28:00;3.60;;;1.55;;
72720;SDS011;60835;50.974;10.322;2023-09-19T09:30:34;6.53;;;1.80;;
72720;SDS011;60835;50.974;10.322;2023-09-19T09:33:07;5.32;;;1.63;;
72720;SDS011;60835;50.974;10.322;2023-09-19T09:38:24;6.35;;;1.63;;
72720;SDS011;60835;50.974;10.322;2023-09-19T09:40:59;7.22;;;2.03;;
72720;SDS011;60835;50.974;10.322;2023-09-19T09:43:36;3.03;;;1.30;;
72720;SDS011;60835;50.974;10.322;2023-09-19T09:46:06;3.08;;;1.52;;
72720;SDS011;60835;50.974;10.322;2023-09-19T09:48:58;4.97;;;2.22;;
72720;SDS011;60835;50.974;10.322;2023-09-19T09:54:37;4.38;;;1.95;;
72720;SDS011;60835;50.974;10.322;2023-09-19T09:57:10;2.42;;;1.48;;
72720;SDS011;60835;50.974;10.322;2023-09-19T09:59:44;6.97;;;2.58;;
72720;SDS011;60835;50.974;10.322;2023-09-19T10:02:35;3.45;;;1.40;;
72720;SDS011;60835;50.974;10.322;2023-09-19T10:05:11;5.87;;;1.90;;
72720;SDS011;60835;50.974;10.322;2023-09-19T10:07:49;5.68;;;2.22;;
72720;SDS011;60835;50.974;10.322;2023-09-19T10:10:38;2.70;;;1.35;;
72720;SDS011;60835;50.974;10.322;2023-09-19T10:13:12;2.80;;;1.38;;
72720;SDS011;60835;50.974;10.322;2023-09-19T10:15:46;3.95;;;1.60;;
72720;SDS011;60835;50.974;10.322;2023-09-19T10:18:22;3.75;;;1.50;;
72720;SDS011;60835;50.974;10.322;2023-09-19T10:20:50;9.27;;;3.33;;
72720;SDS011;60835;50.974;10.322;2023-09-19T10:23:18;4.18;;;1.50;;
72720;SDS011;60835;50.974;10.322;2023-09-19T10:26:03;3.10;;;1.52;;
72720;SDS011;60835;50.974;10.322;2023-09-19T10:28:32;5.45;;;2.00;;
72720;SDS011;60835;50.974;10.322;2023-09-19T10:31:01;5.20;;;1.75;;
72720;SDS011;60835;50.974;10.322;2023-09-19T10:33:29;7.43;;;3.35;;
72720;SDS011;60835;50.974;10.322;2023-09-19T10:36:04;6.10;;;1.90;;
72720;SDS011;60835;50.974;10.322;2023-09-19T10:38:31;4.25;;;1.60;;
72720;SDS011;60835;50.974;10.322;2023-09-19T10:41:02;6.05;;;2.47;;
72720;SDS011;60835;50.974;10.322;2023-09-19T10:43:31;3.78;;;1.90;;
72720;SDS011;60835;50.974;10.322;2023-09-19T10:46:02;3.58;;;1.98;;
72720;SDS011;60835;50.974;10.322;2023-09-19T10:48:32;7.30;;;2.28;;
72720;SDS011;60835;50.974;10.322;2023-09-19T10:51:09;5.63;;;2.15;;
72720;SDS011;60835;50.974;10.322;2023-09-19T10:53:44;4.38;;;1.92;;
72720;SDS011;60835;50.974;10.322;2023-09-19T10:56:19;6.72;;;2.15;;
72720;SDS011;60835;50.974;10.322;2023-09-19T10:58:49;5.80;;;1.90;;
72720;SDS011;60835;50.974;10.322;2023-09-19T11:01:16;4.65;;;2.03;;
72720;SDS011;60835;50.974;10.322;2023-09-19T11:03:43;4.50;;;1.95;;
72720;SDS011;60835;50.974;10.322;2023-09-19T11:06:12;6.03;;;3.50;;
72720;SDS011;60835;50.974;10.322;2023-09-19T11:30:49;6.75;;;2.25;;
72720;SDS011;60835;50.974;10.322;2023-09-19T11:33:20;3.55;;;2.10;;
72720;SDS011;60835;50.974;10.322;2023-09-19T11:36:07;3.55;;;1.85;;
72720;SDS011;60835;50.974;10.322;2023-09-19T11:46:23;7.50;;;2.53;;
72720;SDS011;60835;50.974;10.322;2023-09-19T11:48:51;7.18;;;2.65;;
72720;SDS011;60835;50.974;10.322;2023-09-19T11:51:19;5.57;;;2.30;;
72720;SDS011;60835;50.974;10.322;2023-09-19T11:53:56;5.35;;;2.10;;
72720;SDS011;60835;50.974;10.322;2023-09-19T11:56:26;6.50;;;2.10;;
72720;SDS011;60835;50.974;10.322;2023-09-19T11:58:54;5.93;;;2.33;;
72720;SDS011;60835;50.974;10.322;2023-09-19T12:01:23;8.10;;;2.53;;
72720;SDS011;60835;50.974;10.322;2023-09-19T12:06:28;7.85;;;3.00;;
72720;SDS011;60835;50.974;10.322;2023-09-19T12:08:56;6.80;;;2.75;;
72720;SDS011;60835;50.974;10.322;2023-09-19T12:11:28;7.38;;;3.50;;
72720;SDS011;60835;50.974;10.322;2023-09-19T12:13:59;5.88;;;2.53;;
72720;SDS011;60835;50.974;10.322;2023-09-19T12:16:30;5.70;;;2.13;;
72720;SDS011;60835;50.974;10.322;2023-09-19T12:18:57;6.55;;;2.20;;
72720;SDS011;60835;50.974;10.322;2023-09-19T12:21:28;4.50;;;2.17;;
72720;SDS011;60835;50.974;10.322;2023-09-19T12:24:07;5.75;;;2.72;;
72720;SDS011;60835;50.974;10.322;2023-09-19T12:26:46;9.63;;;2.83;;
72720;SDS011;60835;50.974;10.322;2023-09-19T12:29:19;8.23;;;2.83;;
72720;SDS011;60835;50.974;10.322;2023-09-19T12:31:47;5.63;;;2.28;;
72720;SDS011;60835;50.974;10.322;2023-09-19T12:34:21;8.40;;;2.22;;
72720;SDS011;60835;50.974;10.322;2023-09-19T12:36:49;8.00;;;2.65;;
72720;SDS011;60835;50.974;10.322;2023-09-19T12:39:42;7.18;;;2.42;;
72720;SDS011;60835;50.974;10.322;2023-09-19T12:42:15;6.03;;;2.53;;
72720;SDS011;60835;50.974;10.322;2023-09-19T12:44:44;5.25;;;2.38;;
72720;SDS011;60835;50.974;10.322;2023-09-19T12:47:17;5.10;;;2.28;;
72720;SDS011;60835;50.974;10.322;2023-09-19T12:50:06;5.88;;;2.30;;
72720;SDS011;60835;50.974;10.322;2023-09-19T12:55:22;6.65;;;2.53;;
72720;SDS011;60835;50.974;10.322;2023-09-19T13:03:17;5.32;;;2.35;;
72720;SDS011;60835;50.974;10.322;2023-09-19T13:05:52;7.68;;;2.83;;
72720;SDS011;60835;50.974;10.322;2023-09-19T13:08:28;5.97;;;2.33;;
72720;SDS011;60835;50.974;10.322;2023-09-19T13:11:08;5.07;;;2.40;;
72720;SDS011;60835;50.974;10.322;2023-09-19T13:13:45;4.53;;;1.90;;
72720;SDS011;60835;50.974;10.322;2023-09-19T13:16:21;8.82;;;2.22;;
72720;SDS011;60835;50.974;10.322;2023-09-19T13:18:51;5.13;;;1.98;;
72720;SDS011;60835;50.974;10.322;2023-09-19T13:21:32;4.40;;;2.28;;
72720;SDS011;60835;50.974;10.322;2023-09-19T13:26:46;6.63;;;2.90;;
72720;SDS011;60835;50.974;10.322;2023-09-19T13:29:13;5.32;;;2.55;;
72720;SDS011;60835;50.974;10.322;2023-09-19T13:31:47;10.32;;;2.55;;
72720;SDS011;60835;50.974;10.322;2023-09-19T13:34:15;2.97;;;2.22;;
72720;SDS011;60835;50.974;10.322;2023-09-19T13:36:43;5.05;;;2.25;;
72720;SDS011;60835;50.974;10.322;2023-09-19T13:39:10;6.30;;;2.65;;
72720;SDS011;60835;50.974;10.322;2023-09-19T13:41:40;4.38;;;2.30;;
72720;SDS011;60835;50.974;10.322;2023-09-19T13:44:07;10.15;;;2.78;;
72720;SDS011;60835;50.974;10.322;2023-09-19T13:46:36;3.95;;;2.15;;
72720;SDS011;60835;50.974;10.322;2023-09-19T13:49:03;6.97;;;2.58;;
72720;SDS011;60835;50.974;10.322;2023-09-19T13:51:30;5.35;;;2.55;;
72720;SDS011;60835;50.974;10.322;2023-09-19T13:53:58;7.50;;;4.00;;
72720;SDS011;60835;50.974;10.322;2023-09-19T13:56:25;10.07;;;2.63;;
72720;SDS011;60835;50.974;10.322;2023-09-19T13:58:57;5.65;;;2.60;;
72720;SDS011;60835;50.974;10.322;2023-09-19T14:01:23;8.05;;;2.28;;
72720;SDS011;60835;50.974;10.322;2023-09-19T14:03:51;6.25;;;2.22;;
72720;SDS011;60835;50.974;10.322;2023-09-19T14:06:19;9.38;;;5.20;;
72720;SDS011;60835;50.974;10.322;2023-09-19T14:08:45;7.32;;;2.20;;
72720;SDS011;60835;50.974;10.322;2023-09-19T14:11:16;6.43;;;2.30;;
72720;SDS011;60835;50.974;10.322;2023-09-19T14:13:43;7.47;;;2.67;;
72720;SDS011;60835;50.974;10.322;2023-09-19T14:16:13;7.70;;;2.53;;
72720;SDS011;60835;50.974;10.322;2023-09-19T14:18:40;4.47;;;2.33;;
72720;SDS011;60835;50.974;10.322;2023-09-19T14:21:07;6.57;;;2.60;;
72720;SDS011;60835;50.974;10.322;2023-09-19T14:23:37;5.95;;;2.88;;
72720;SDS011;60835;50.974;10.322;2023-09-19T14:26:04;7.55;;;2.97;;
72720;SDS011;60835;50.974;10.322;2023-09-19T14:28:34;4.95;;;2.00;;
72720;SDS011;60835;50.974;10.322;2023-09-19T14:31:04;13.43;;;2.50;;
72720;SDS011;60835;50.974;10.322;2023-09-19T14:33:34;6.93;;;2.67;;
72720;SDS011;60835;50.974;10.322;2023-09-19T14:36:08;9.63;;;2.97;;
72720;SDS011;60835;50.974;10.322;2023-09-19T14:38:37;9.00;;;3.03;;
72720;SDS011;60835;50.974;10.322;2023-09-19T14:41:05;6.55;;;2.42;;
72720;SDS011;60835;50.974;10.322;2023-09-19T14:43:33;10.82;;;2.75;;
72720;SDS011;60835;50.974;10.322;2023-09-19T14:46:03;9.38;;;2.78;;
72720;SDS011;60835;50.974;10.322;2023-09-19T14:48:39;7.38;;;2.50;;
72720;SDS011;60835;50.974;10.322;2023-09-19T14:51:06;8.10;;;2.58;;
72720;SDS011;60835;50.974;10.322;2023-09-19T14:53:38;8.70;;;3.05;;
72720;SDS011;60835;50.974;10.322;2023-09-19T14:56:05;6.93;;;2.55;;
72720;SDS011;60835;50.974;10.322;2023-09-19T14:58:34;9.45;;;3.17;;
72720;SDS011;60835;50.974;10.322;2023-09-19T15:01:02;6.20;;;2.53;;
72720;SDS011;60835;50.974;10.322;2023-09-19T15:03:34;10.45;;;4.47;;
72720;SDS011;60835;50.974;10.322;2023-09-19T15:06:03;14.25;;;6.80;;
72720;SDS011;60835;50.974;10.322;2023-09-19T15:08:35;8.43;;;2.92;;
72720;SDS011;60835;50.974;10.322;2023-09-19T15:11:05;11.50;;;2.75;;
72720;SDS011;60835;50.974;10.322;2023-09-19T15:13:32;7.78;;;2.53;;
72720;SDS011;60835;50.974;10.322;2023-09-19T15:16:03;7.30;;;2.10;;
72720;SDS011;60835;50.974;10.322;2023-09-19T15:18:31;4.97;;;2.50;;
72720;SDS011;60835;50.974;10.322;2023-09-19T15:21:00;13.68;;;3.00;;
72720;SDS011;60835;50.974;10.322;2023-09-19T15:23:27;9.45;;;3.00;;
72720;SDS011;60835;50.974;10.322;2023-09-19T15:25:58;9.50;;;2.58;;
72720;SDS011;60835;50.974;10.322;2023-09-19T15:28:24;10.32;;;2.95;;
72720;SDS011;60835;50.974;10.322;2023-09-19T15:30:56;7.80;;;2.35;;
72720;SDS011;60835;50.974;10.322;2023-09-19T15:33:26;11.07;;;2.83;;
72720;SDS011;60835;50.974;10.322;2023-09-19T15:40:54;5.28;;;2.33;;
72720;SDS011;60835;50.974;10.322;2023-09-19T15:43:21;6.32;;;2.33;;
72720;SDS011;60835;50.974;10.322;2023-09-19T15:45:48;9.18;;;2.40;;
72720;SDS011;60835;50.974;10.322;2023-09-19T15:48:16;8.88;;;2.65;;
72720;SDS011;60835;50.974;10.322;2023-09-19T15:50:43;10.05;;;2.50;;
72720;SDS011;60835;50.974;10.322;2023-09-19T15:53:10;11.23;;;2.30;;
72720;SDS011;60835;50.974;10.322;2023-09-19T15:55:40;7.78;;;2.25;;
72720;SDS011;60835;50.974;10.322;2023-09-19T15:58:07;8.15;;;2.25;;
72720;SDS011;60835;50.974;10.322;2023-09-19T16:00:34;5.18;;;2.15;;
72720;SDS011;60835;50.974;10.322;2023-09-19T16:03:00;10.45;;;2.85;;
72720;SDS011;60835;50.974;10.322;2023-09-19T16:05:28;9.80;;;2.92;;